METAR AND TAF INFORMATION
METAR FOR YBHM
ADDS - METARS form results

(0011 UTC 29 February 2020)
Data provider http://aviationweather.gov/metar/data/
 
METAR text: YBHM 290000Z AUTO 11016KT 9999 // SCT029 SCT035 SCT053 30/24 Q1011
Conditions at: YBHM (HAMILTON ISLAND , AU) observed 0000 UTC 29 February 2020
Temperature: 30.0°C (86°F)
Dewpoint: 24.0°C (75°F) [RH = 70%]
Pressure (altimeter): 29.85 inches Hg (1011.0 mb)
Winds: from the ESE (110 degrees) at 18 MPH (16 knots; 8.2 m/s)
Visibility: 6 or more miles (10+ km)
Ceiling: at least 12,000 feet AGL
Clouds: scattered clouds at 2900 feet AGL
scattered clouds at 3500 feet AGL
scattered clouds at 5300 feet AGL
Weather: no significant weather observed at this time

METAR text: YBHM 282330Z AUTO 11014KT 9999 // SCT028 30/23 Q1010 RF00.0/000.0
Conditions at: YBHM (HAMILTON ISLAND , AU) observed 2330 UTC 28 February 2020
Temperature: 30.0°C (86°F)
Dewpoint: 23.0°C (73°F) [RH = 66%]
Pressure (altimeter): 29.82 inches Hg (1010.0 mb)
Winds: from the ESE (110 degrees) at 16 MPH (14 knots; 7.2 m/s)
Visibility: 6 or more miles (10+ km)
Ceiling: at least 12,000 feet AGL
Clouds: scattered clouds at 2800 feet AGL
Weather: no significant weather observed at this time

Forecast for: YBHM (HAMILTON ISLAND , AU)
Text: TAF YBHM 282302Z 2900/2912 13018KT 9999 -SHRA SCT025
Forecast period: 0000 to 1200 UTC 29 February 2020
Forecast type: FROM: standard forecast or significant change
Winds: from the SE (130 degrees) at 21 MPH (18 knots; 9.3 m/s)
Visibility: 6 or more miles 10+ km)
Ceiling: at least 12,000 feet AGL
Clouds: scattered clouds at 2500 feet AGL
Weather: -SHRA  (light rain showers)

 AIRPORT MAP

 RUNWAY INFORMATION
Runway 14 Runway length 5591 ft Runway width 148 ft
Runway elevation 15 ft Runway displaced threshold 196 ft Runway heading 143
Runway 32 Runway length 5591 ft Runway width 148 ft
Runway elevation 15 ft Runway displaced threshold 196 ft Runway heading 323

 AIRPORT FREQUENCIES
Type ATIS Name ATIS Frequency 114.4 MHZ
Type CTAF Name CTAF Frequency 126.7 MHZ
Type FSS Name BRISBANE C Frequency 135.5 MHZ
Type TWR Name TWR Frequency 118.7 MHZ

 AIRPORT NEAR NAVIGATION AIDS
Type VOR-DME Name Hamilton Island Frequency 114400 KHZ
Type NDB Name Hamilton Island Frequency 383 KHZ



Powered by Virtual Airlines Manager [v2.6.2]